createdAt,value
2018-09-11T00:09:57.336Z,16.40
2018-09-11T00:15:01.427Z,16.30
2018-09-11T00:20:05.575Z,16.20
2018-09-11T00:25:10.162Z,16.20
2018-09-11T00:30:14.320Z,16.10
2018-09-11T00:35:18.365Z,15.90
2018-09-11T00:45:26.359Z,15.70
2018-09-11T00:50:30.418Z,15.60
2018-09-11T00:55:34.486Z,15.40
2018-09-11T01:05:42.355Z,15.30
2018-09-11T01:10:46.511Z,15.30
2018-09-11T01:15:50.559Z,15.20
2018-09-11T01:20:54.734Z,15.30
2018-09-11T01:25:58.902Z,15.40
2018-09-11T01:31:02.945Z,15.30
2018-09-11T01:36:07.077Z,15.30
2018-09-11T01:41:11.137Z,15.40
2018-09-11T01:46:16.684Z,15.40
2018-09-11T01:51:20.794Z,15.50
2018-09-11T01:56:24.939Z,15.40
2018-09-11T02:01:29.001Z,15.40
2018-09-11T02:11:36.910Z,15.30
2018-09-11T02:16:40.954Z,15.30
2018-09-11T02:21:45.090Z,15.40
2018-09-11T02:26:49.103Z,15.50
2018-09-11T02:36:56.958Z,15.50
2018-09-11T02:42:00.993Z,15.50
2018-09-11T02:52:08.845Z,15.50
2018-09-11T03:02:16.922Z,15.50
2018-09-11T03:07:21.024Z,15.50
2018-09-11T03:12:25.047Z,15.50
2018-09-11T03:22:32.947Z,15.50
2018-09-11T03:27:37.021Z,15.50
2018-09-11T03:32:41.123Z,15.50
2018-09-11T03:47:53.275Z,15.50
2018-09-11T03:58:01.258Z,15.50
2018-09-11T04:03:05.301Z,15.40
2018-09-11T04:13:13.256Z,15.40
2018-09-11T04:18:17.418Z,15.40
2018-09-11T04:23:21.465Z,15.30
2018-09-11T04:28:25.542Z,15.30
2018-09-11T04:33:29.616Z,15.30
2018-09-11T04:38:33.677Z,15.40
2018-09-11T04:48:43.770Z,15.30
2018-09-11T04:53:47.827Z,15.30
2018-09-11T04:58:52.004Z,15.30
2018-09-11T05:03:56.070Z,15.20
2018-09-11T05:09:00.191Z,15.30
2018-09-11T05:14:04.328Z,15.30
2018-09-11T05:19:08.466Z,15.40
2018-09-11T05:24:12.557Z,15.50
2018-09-11T05:29:16.886Z,15.50
2018-09-11T05:34:21.647Z,15.60
2018-09-11T05:44:29.618Z,15.70
2018-09-11T05:49:33.693Z,15.90
2018-09-11T05:59:41.638Z,16.20
2018-09-11T06:04:46.661Z,16.40
2018-09-11T06:09:50.782Z,16.40
2018-09-11T06:14:54.846Z,16.40
2018-09-11T06:19:58.929Z,16.50
2018-09-11T06:25:02.981Z,16.50
2018-09-11T06:30:07.073Z,16.60
2018-09-11T06:40:15.064Z,16.90
2018-09-11T06:45:19.148Z,17.10
2018-09-11T06:50:23.193Z,17.30
2018-09-11T06:55:27.257Z,17.60
2018-09-11T07:00:31.643Z,18.50
2018-09-11T07:05:35.808Z,19.40
2018-09-11T07:10:39.875Z,19.90
2018-09-11T07:15:43.989Z,20.80
2018-09-11T07:20:48.706Z,22.00
2018-09-11T07:25:52.844Z,23.00
2018-09-11T07:36:00.841Z,23.30
2018-09-11T07:41:04.901Z,23.50
2018-09-11T07:46:08.994Z,23.50
2018-09-11T07:51:13.064Z,23.80
2018-09-11T07:56:17.106Z,23.50
2018-09-11T08:01:21.230Z,23.60
2018-09-11T08:06:25.268Z,23.30
2018-09-11T08:11:29.305Z,22.80
2018-09-11T08:16:33.446Z,22.80
2018-09-11T08:21:37.393Z,23.30
2018-09-11T08:52:00.640Z,25.60
2018-09-11T08:57:04.702Z,25.40
2018-09-11T09:02:08.774Z,25.60
2018-09-11T09:12:16.642Z,26.30
2018-09-11T09:17:20.762Z,26.80
2018-09-11T09:22:24.817Z,26.80
2018-09-11T09:27:28.931Z,27.40
2018-09-11T09:32:33.733Z,27.90
2018-09-11T09:37:37.884Z,27.70
2018-09-11T09:42:41.993Z,27.90
2018-09-11T09:47:46.062Z,27.70
2018-09-11T09:52:50.174Z,27.60
2018-09-11T09:57:54.312Z,27.50
2018-09-11T10:02:58.450Z,27.80
2018-09-11T10:08:02.512Z,27.70
2018-09-11T10:13:06.678Z,27.50
2018-09-11T10:23:14.637Z,27.80
2018-09-11T10:28:18.697Z,27.30
2018-09-11T10:33:22.846Z,27.40
2018-09-11T10:38:26.930Z,27.30
2018-09-11T10:43:31.062Z,27.40
2018-09-11T10:53:38.947Z,27.30
2018-09-11T10:58:42.974Z,27.10
2018-09-11T11:03:47.091Z,27.10
2018-09-11T11:08:51.182Z,27.20
2018-09-11T11:18:59.092Z,26.90
2018-09-11T11:24:03.138Z,27.00
2018-09-11T11:34:11.024Z,26.70
2018-09-11T11:49:22.834Z,26.80
2018-09-11T11:59:30.756Z,26.80
2018-09-11T12:04:34.854Z,26.90
2018-09-11T12:19:46.649Z,26.80
2018-09-11T12:24:50.734Z,26.70
2018-09-11T12:29:54.793Z,26.80
2018-09-11T12:34:58.894Z,27.00
2018-09-11T12:40:02.949Z,27.00
2018-09-11T12:45:07.181Z,27.10
2018-09-11T12:55:15.070Z,27.10
2018-09-11T13:05:22.905Z,27.30
2018-09-11T13:10:26.951Z,27.30
2018-09-11T13:15:31.041Z,27.20
2018-09-11T13:20:35.075Z,27.40
2018-09-11T13:25:39.117Z,27.40
2018-09-11T13:30:43.153Z,27.40
2018-09-11T13:35:47.186Z,27.50
2018-09-11T13:40:51.273Z,27.60
2018-09-11T13:45:55.362Z,27.50
2018-09-11T13:50:59.396Z,27.50
2018-09-11T14:01:08.142Z,27.60
2018-09-11T14:06:12.180Z,27.60
2018-09-11T14:11:16.375Z,27.60
2018-09-11T14:16:20.407Z,27.60
2018-09-11T14:21:24.495Z,27.60
2018-09-11T14:26:28.550Z,27.70
2018-09-11T14:31:32.606Z,27.70
2018-09-11T14:36:36.753Z,27.60
2018-09-11T14:41:40.845Z,27.70
2018-09-11T14:46:44.961Z,27.60
2018-09-11T14:51:49.345Z,27.70
2018-09-11T15:01:57.221Z,27.60
2018-09-11T15:07:01.392Z,27.60
2018-09-11T15:17:09.309Z,27.60
2018-09-11T15:22:13.439Z,27.60
2018-09-11T15:37:25.160Z,27.50
2018-09-11T15:42:29.281Z,27.40
2018-09-11T15:47:33.330Z,27.50
2018-09-11T16:02:45.106Z,27.30
2018-09-11T16:12:52.990Z,27.20
2018-09-11T16:23:00.833Z,26.90
2018-09-11T16:28:05.013Z,26.90
2018-09-11T16:33:09.102Z,26.80
2018-09-11T16:38:13.158Z,26.80
2018-09-11T16:53:24.946Z,26.40
2018-09-11T16:58:29.028Z,26.50
2018-09-11T17:28:52.211Z,25.90
2018-09-11T17:39:00.116Z,25.50
2018-09-11T17:44:04.302Z,25.30
2018-09-11T17:59:16.159Z,25.00
2018-09-11T18:04:20.206Z,24.80
2018-09-11T18:09:24.261Z,24.50
2018-09-11T18:14:28.321Z,24.20
2018-09-11T18:19:32.409Z,23.80
2018-09-11T18:24:36.554Z,23.50
2018-09-11T18:34:44.829Z,23.10
2018-09-11T18:39:48.946Z,22.90
2018-09-11T18:44:53.087Z,22.80
2018-09-11T19:00:04.895Z,22.20
2018-09-11T19:10:12.786Z,21.90
2018-09-11T19:25:24.617Z,21.30
2018-09-11T19:30:28.738Z,21.20
2018-09-11T19:35:32.830Z,21.00
2018-09-11T19:40:37.006Z,20.90
2018-09-11T19:45:41.163Z,20.80
2018-09-11T20:05:57.354Z,20.60
2018-09-11T20:11:01.486Z,20.50
2018-09-11T20:16:05.601Z,20.50
2018-09-11T20:21:09.694Z,20.40
2018-09-11T20:26:13.803Z,20.40
2018-09-11T20:31:17.871Z,20.20
2018-09-11T20:36:21.993Z,20.20
2018-09-11T20:41:26.088Z,20.20
2018-09-11T20:51:34.053Z,20.20
2018-09-11T21:01:41.943Z,20.30
2018-09-11T21:16:54.630Z,20.40
2018-09-11T21:21:58.690Z,20.40
2018-09-11T21:27:02.730Z,20.50
2018-09-11T21:32:07.159Z,20.60
2018-09-11T21:42:16.310Z,20.60
2018-09-11T21:47:20.357Z,20.60
2018-09-11T21:52:24.388Z,20.50
2018-09-11T22:07:36.137Z,20.50
2018-09-11T22:12:40.623Z,20.50
2018-09-11T22:17:44.666Z,20.40
2018-09-11T22:22:48.693Z,20.50
2018-09-11T22:32:56.618Z,20.30
2018-09-11T22:38:00.790Z,20.30
2018-09-11T22:48:08.942Z,20.20
2018-09-11T22:53:12.986Z,20.10
2018-09-11T22:58:17.861Z,20.20
2018-09-11T23:03:21.902Z,20.10
2018-09-11T23:18:33.570Z,19.80
2018-09-11T23:23:37.665Z,19.60
2018-09-11T23:28:41.693Z,19.50
2018-09-11T23:33:46.734Z,19.30
2018-09-11T23:38:50.791Z,19.20
2018-09-11T23:43:54.861Z,19.10
2018-09-11T23:48:58.939Z,18.90
2018-09-11T23:54:02.978Z,18.70
2018-09-11T23:59:07.078Z,18.50
